SLPA weather

Palmar Airport
Guanacos, Santa Cruz Department, Bolivia

Public forecast

Using degrees Celsius for public forecast. Weather courtesy of forecast.io.

METAR (pilot weather report)

Report is more than 2 hours old.

Closest report is Camiri Airport, 69.6 nm (128.8 km) SSW. Retrieved 2019/03/20 23:00 UTC (2 hours ago):

SLCA 202300Z 18004KT 9999 BKN025 19/16 Q1020

TAF (pilot weather forecast)

Forecast is more than 12 hours old.

Closest forecast is El Trompillo Airport, 70.5 nm (130.6 km) N. Retrieved 2019/03/19 06:03 UTC (2 days ago):

TAF SLET 190355Z 1906/2006 33005KT 8000 -RA BKN010 BKN070 FEW030CB TX32/1919Z TN21/1910Z BECMG 1914/1916 33015G25KT 9999 NSW SCT012 BKN017 TEMPO 1918/1920 8000 SHRA BKN023 FEW030CB BECMG 1923/2002 33010KT 9999 NSW SCT017